Time,TemperatureF,DewpointF,PressureIn,WindDirection,WindDirectionDegrees,WindSpeedMPH,WindSpeedGustMPH,Humidity,HourlyPrecipIn,Conditions,Clouds,dailyrainin,SolarRadiationWatts/m^2,SoftwareType,DateUTC
2015-05-29 00:01:00,60.5,54.3,29.95,South,171,0.0,0.0,80,0.00,CLR,,0.00,0.0,WeatherDisplay:10.37,2015-05-29 07:01:00,
2015-05-29 00:06:00,60.5,54.3,29.95,South,171,0.0,0.0,80,0.00,CLR,,0.00,0.0,WeatherDisplay:10.37,2015-05-29 07:06:00,
2015-05-29 00:11:00,60.4,54.5,29.95,South,172,0.0,0.0,81,0.00,CLR,,0.00,0.0,WeatherDisplay:10.37,2015-05-29 07:11:00,
2015-05-29 00:16:00,60.2,54.3,29.95,South,172,0.0,0.0,81,0.00,CLR,,0.00,0.0,WeatherDisplay:10.37,2015-05-29 07:16:00,
2015-05-29 00:21:00,60.1,54.2,29.95,South,171,0.0,0.0,81,0.00,CLR,,0.00,0.0,WeatherDisplay:10.37,2015-05-29 07:21:00,
2015-05-29 00:26:00,60.1,54.2,29.95,South,169,0.0,0.0,81,0.00,CLR,,0.00,0.0,WeatherDisplay:10.37,2015-05-29 07:26:00,
2015-05-29 00:31:00,59.9,54.1,29.95,South,169,0.0,0.0,81,0.00,CLR,,0.00,0.0,WeatherDisplay:10.37,2015-05-29 07:31:00,
2015-05-29 00:36:00,59.9,54.1,29.95,South,169,0.0,0.0,81,0.00,CLR,,0.00,0.0,WeatherDisplay:10.37,2015-05-29 07:36:00,
2015-05-29 00:41:00,59.8,54.0,29.95,SSE,168,0.0,0.0,81,0.00,CLR,,0.00,0.0,WeatherDisplay:10.37,2015-05-29 07:41:00,
2015-05-29 00:46:00,59.8,54.0,29.95,SSE,167,0.0,0.0,81,0.00,CLR,,0.00,0.0,WeatherDisplay:10.37,2015-05-29 07:46:00,
2015-05-29 00:51:00,59.6,53.8,29.95,SSE,167,0.0,0.0,81,0.00,CLR,,0.00,0.0,WeatherDisplay:10.37,2015-05-29 07:51:00,
2015-05-29 00:56:00,59.3,53.5,29.95,SSE,168,0.0,0.0,81,0.00,CLR,,0.00,0.0,WeatherDisplay:10.37,2015-05-29 07:56:00,
2015-05-29 01:01:00,59.2,53.4,29.97,SSE,168,0.0,0.0,81,0.00,CLR,,0.00,0.0,WeatherDisplay:10.37,2015-05-29 08:01:00,
2015-05-29 01:06:00,59.0,53.2,29.97,South,175,0.0,0.0,81,0.00,CLR,,0.00,0.0,WeatherDisplay:10.37,2015-05-29 08:06:00,
2015-05-29 01:11:00,59.0,53.5,29.97,South,178,0.0,0.0,82,0.00,CLR,,0.00,0.0,WeatherDisplay:10.37,2015-05-29 08:11:00,
2015-05-29 01:16:00,58.9,53.4,29.97,South,178,0.0,0.0,82,0.00,CLR,,0.00,0.0,WeatherDisplay:10.37,2015-05-29 08:16:00,
2015-05-29 01:21:00,58.9,53.4,29.97,South,176,0.0,0.0,82,0.00,CLR,,0.00,0.0,WeatherDisplay:10.37,2015-05-29 08:21:00,
2015-05-29 01:26:00,58.7,53.2,29.97,South,176,0.0,0.0,82,0.00,CLR,,0.00,0.0,WeatherDisplay:10.37,2015-05-29 08:26:00,
2015-05-29 01:31:00,58.7,53.2,29.97,South,176,0.0,0.0,82,0.00,CLR,,0.00,0.0,WeatherDisplay:10.37,2015-05-29 08:31:00,
2015-05-29 01:36:00,58.6,53.1,29.97,South,176,0.0,0.0,82,0.00,CLR,,0.00,0.0,WeatherDisplay:10.37,2015-05-29 08:36:00,
2015-05-29 01:41:00,58.6,53.1,29.97,South,176,0.0,0.0,82,0.00,CLR,,0.00,0.0,WeatherDisplay:10.37,2015-05-29 08:41:00,
2015-05-29 01:46:00,58.6,53.5,29.97,South,175,0.0,0.0,83,0.00,CLR,,0.00,0.0,WeatherDisplay:10.37,2015-05-29 08:46:00,
2015-05-29 01:51:00,58.6,53.5,29.97,South,176,0.0,0.0,83,0.00,CLR,,0.00,0.0,WeatherDisplay:10.37,2015-05-29 08:51:00,
2015-05-29 01:56:00,58.4,53.3,29.97,South,176,0.0,0.0,83,0.00,CLR,,0.00,0.0,WeatherDisplay:10.37,2015-05-29 08:56:00,
2015-05-29 02:01:00,58.4,53.3,29.94,South,176,0.0,0.0,83,0.00,CLR,,0.00,0.0,WeatherDisplay:10.37,2015-05-29 09:01:00,
2015-05-29 02:06:00,58.4,53.6,29.93,South,178,0.0,0.0,84,0.00,CLR,,0.00,0.0,WeatherDisplay:10.37,2015-05-29 09:06:00,
2015-05-29 02:11:00,58.4,53.6,29.93,South,171,0.0,0.0,84,0.00,CLR,,0.00,0.0,WeatherDisplay:10.37,2015-05-29 09:11:00,
2015-05-29 02:16:00,58.3,53.5,29.93,South,172,0.0,0.0,84,0.00,CLR,,0.00,0.0,WeatherDisplay:10.37,2015-05-29 09:16:00,
2015-05-29 02:21:00,58.3,53.5,29.93,South,175,0.0,0.0,84,0.00,CLR,,0.00,0.0,WeatherDisplay:10.37,2015-05-29 09:21:00,
2015-05-29 02:26:00,58.1,53.3,29.93,South,174,0.0,0.0,84,0.00,CLR,,0.00,0.0,WeatherDisplay:10.37,2015-05-29 09:26:00,
2015-05-29 02:31:00,58.1,53.3,29.93,South,174,0.0,0.0,84,0.00,CLR,,0.00,0.0,WeatherDisplay:10.37,2015-05-29 09:31:00,
2015-05-29 02:36:00,58.0,53.2,29.93,South,176,0.0,0.0,84,0.00,CLR,,0.00,0.0,WeatherDisplay:10.37,2015-05-29 09:36:00,
2015-05-29 02:41:00,58.0,53.2,29.93,South,181,0.0,0.0,84,0.00,CLR,,0.00,0.0,WeatherDisplay:10.37,2015-05-29 09:41:00,
2015-05-29 02:46:00,57.8,53.0,29.93,South,181,0.0,0.0,84,0.00,CLR,,0.00,0.0,WeatherDisplay:10.37,2015-05-29 09:46:00,
2015-05-29 02:51:00,57.8,53.0,29.93,South,181,0.0,0.0,84,0.00,CLR,,0.00,0.0,WeatherDisplay:10.37,2015-05-29 09:51:00,
2015-05-29 02:56:00,57.8,53.0,29.92,South,181,0.0,0.0,84,0.00,CLR,,0.00,0.0,WeatherDisplay:10.37,2015-05-29 09:56:00,
2015-05-29 03:01:00,57.8,53.0,29.92,South,182,0.0,0.0,84,0.00,CLR,,0.00,0.0,WeatherDisplay:10.37,2015-05-29 10:01:00,
2015-05-29 03:06:00,57.8,53.0,29.93,South,182,0.0,0.0,84,0.00,CLR,,0.00,0.0,WeatherDisplay:10.37,2015-05-29 10:06:00,
2015-05-29 03:11:00,57.8,53.0,29.93,South,182,0.0,0.0,84,0.00,CLR,,0.00,0.0,WeatherDisplay:10.37,2015-05-29 10:11:00,
2015-05-29 03:16:00,57.8,53.0,29.90,North,0,0.0,0.0,84,0.00,CLR,,0.00,0.0,WeatherDisplay:10.37,2015-05-29 10:16:00,
2015-05-29 03:21:00,57.8,53.0,29.90,North,0,0.0,0.0,84,0.00,CLR,,0.00,0.0,WeatherDisplay:10.37,2015-05-29 10:21:00,
2015-05-29 03:26:00,57.8,53.0,29.90,North,0,0.0,0.0,84,0.00,CLR,,0.00,0.0,WeatherDisplay:10.37,2015-05-29 10:26:00,
2015-05-29 03:31:00,57.8,53.0,29.90,North,0,0.0,0.0,84,0.00,CLR,,0.00,0.0,WeatherDisplay:10.37,2015-05-29 10:31:00,
2015-05-29 03:36:00,57.8,53.0,29.90,North,0,0.0,0.0,84,0.00,CLR,,0.00,0.0,WeatherDisplay:10.37,2015-05-29 10:36:00,
2015-05-29 03:41:00,57.8,53.0,29.89,North,0,0.0,0.0,84,0.00,CLR,,0.00,0.0,WeatherDisplay:10.37,2015-05-29 10:41:00,
2015-05-29 03:46:00,57.8,53.0,29.89,North,0,0.0,0.0,84,0.00,CLR,,0.00,0.0,WeatherDisplay:10.37,2015-05-29 10:46:00,
2015-05-29 03:51:00,57.8,53.0,29.89,North,0,0.0,0.0,84,0.00,CLR,,0.00,0.0,WeatherDisplay:10.37,2015-05-29 10:51:00,
2015-05-29 03:56:00,57.8,53.0,29.89,North,0,0.0,0.0,84,0.00,CLR,,0.00,0.0,WeatherDisplay:10.37,2015-05-29 10:56:00,
2015-05-29 04:01:00,57.8,53.0,29.89,North,0,0.0,0.0,84,0.00,CLR,,0.00,0.0,WeatherDisplay:10.37,2015-05-29 11:01:00,
2015-05-29 04:06:00,57.8,53.0,29.89,North,0,0.0,0.0,84,0.00,CLR,,0.00,0.0,WeatherDisplay:10.37,2015-05-29 11:06:00,
2015-05-29 04:11:00,57.8,53.0,29.89,North,0,0.0,0.0,84,0.00,CLR,,0.00,0.0,WeatherDisplay:10.37,2015-05-29 11:11:00,
2015-05-29 04:16:00,57.8,53.0,29.89,North,0,0.0,0.0,84,0.00,CLR,,0.00,0.0,WeatherDisplay:10.37,2015-05-29 11:16:00,
2015-05-29 04:21:00,57.8,53.0,29.89,North,0,0.0,0.0,84,0.00,CLR,,0.00,0.0,WeatherDisplay:10.37,2015-05-29 11:21:00,
2015-05-29 04:26:00,57.8,53.0,29.89,North,0,0.0,0.0,84,0.00,CLR,,0.00,0.0,WeatherDisplay:10.37,2015-05-29 11:26:00,
2015-05-29 04:31:00,57.8,53.0,29.89,North,0,0.0,0.0,84,0.00,CLR,,0.00,0.0,WeatherDisplay:10.37,2015-05-29 11:31:00,
2015-05-29 04:36:00,57.8,53.0,29.89,North,0,0.0,0.0,84,0.00,CLR,,0.00,0.0,WeatherDisplay:10.37,2015-05-29 11:36:00,
2015-05-29 04:41:00,57.8,53.0,29.90,North,0,0.0,0.0,84,0.00,CLR,,0.00,0.0,WeatherDisplay:10.37,2015-05-29 11:41:00,
2015-05-29 04:46:00,57.8,53.0,29.90,North,0,0.0,0.0,84,0.00,CLR,,0.00,0.0,WeatherDisplay:10.37,2015-05-29 11:46:00,
2015-05-29 04:51:00,57.8,53.0,29.90,North,0,0.0,0.0,84,0.00,CLR,,0.00,0.0,WeatherDisplay:10.37,2015-05-29 11:51:00,
2015-05-29 04:56:00,57.8,53.0,29.90,North,0,0.0,0.0,84,0.00,CLR,,0.00,0.0,WeatherDisplay:10.37,2015-05-29 11:56:00,
2015-05-29 05:01:00,57.8,53.0,29.90,North,0,0.0,0.0,84,0.00,CLR,,0.00,0.0,WeatherDisplay:10.37,2015-05-29 12:01:00,
2015-05-29 05:06:00,57.8,53.0,29.90,North,0,0.0,0.0,84,0.00,CLR,,0.00,0.0,WeatherDisplay:10.37,2015-05-29 12:06:00,
2015-05-29 05:11:00,57.8,53.0,29.90,North,0,0.0,0.0,84,0.00,CLR,,0.00,0.0,WeatherDisplay:10.37,2015-05-29 12:11:00,
2015-05-29 05:16:00,57.8,53.0,29.90,North,0,0.0,0.0,84,0.00,CLR,,0.00,0.0,WeatherDisplay:10.37,2015-05-29 12:16:00,
2015-05-29 05:21:00,57.8,53.0,29.90,North,0,0.0,0.0,84,0.00,CLR,,0.00,0.0,WeatherDisplay:10.37,2015-05-29 12:21:00,
2015-05-29 05:26:00,57.8,53.0,29.90,North,0,0.0,0.0,84,0.00,CLR,,0.00,0.0,WeatherDisplay:10.37,2015-05-29 12:26:00,
2015-05-29 05:31:00,57.8,53.0,29.90,North,0,0.0,0.0,84,0.00,CLR,,0.00,0.0,WeatherDisplay:10.37,2015-05-29 12:31:00,
2015-05-29 05:36:00,57.8,53.0,29.91,North,0,0.0,0.0,84,0.00,CLR,,0.00,0.0,WeatherDisplay:10.37,2015-05-29 12:36:00,
2015-05-29 05:41:00,57.8,53.0,29.91,North,0,0.0,0.0,84,0.00,CLR,,0.00,0.0,WeatherDisplay:10.37,2015-05-29 12:41:00,
2015-05-29 05:46:00,57.8,53.0,29.91,South,178,0.0,0.0,84,0.00,CLR,,0.00,0.0,WeatherDisplay:10.37,2015-05-29 12:46:00,
2015-05-29 05:51:00,54.8,50.1,29.94,South,169,0.0,0.0,84,0.00,BKN,,0.00,0.0,WeatherDisplay:10.37,2015-05-29 12:51:00,
2015-05-29 05:56:00,54.8,50.1,29.94,NNE,13,0.0,0.0,84,0.00,BKN,,0.00,0.0,WeatherDisplay:10.37,2015-05-29 12:56:00,
2015-05-29 06:01:00,54.8,50.1,29.95,NE,41,0.0,0.0,84,0.00,BKN,,0.00,0.0,WeatherDisplay:10.37,2015-05-29 13:01:00,
2015-05-29 06:06:00,54.8,50.1,29.95,NE,41,0.0,0.0,84,0.00,BKN,,0.00,0.0,WeatherDisplay:10.37,2015-05-29 13:06:00,
2015-05-29 06:11:00,54.8,50.1,29.95,NE,41,0.0,0.0,84,0.00,BKN,,0.00,0.0,WeatherDisplay:10.37,2015-05-29 13:11:00,
2015-05-29 06:16:00,54.8,52.8,29.95,NE,41,0.0,0.0,93,0.00,BKN,,0.00,0.0,WeatherDisplay:10.37,2015-05-29 13:16:00,
2015-05-29 06:21:00,54.8,52.8,29.95,NE,41,0.0,0.0,93,0.00,BKN,,0.00,0.0,WeatherDisplay:10.37,2015-05-29 13:21:00,
2015-05-29 06:26:00,54.8,52.8,29.95,NE,41,0.0,0.0,93,0.00,BKN,,0.00,0.0,WeatherDisplay:10.37,2015-05-29 13:26:00,
2015-05-29 06:31:00,54.8,52.8,29.95,NE,41,0.0,0.0,93,0.00,OVC,,0.00,0.0,WeatherDisplay:10.37,2015-05-29 13:31:00,
2015-05-29 06:36:00,54.8,52.8,29.95,NE,41,0.0,0.0,93,0.00,OVC,,0.00,44.0,WeatherDisplay:10.37,2015-05-29 13:36:00,
2015-05-29 06:41:00,55.0,53.3,29.96,NE,41,0.0,0.0,94,0.00,OVC,,0.00,42.9,WeatherDisplay:10.37,2015-05-29 13:41:00,
2015-05-29 06:46:00,55.0,53.3,29.95,NE,41,0.0,0.0,94,0.00,OVC,,0.00,48.4,WeatherDisplay:10.37,2015-05-29 13:46:00,
2015-05-29 06:51:00,55.0,53.6,29.95,NE,40,0.0,0.0,95,0.00,OVC,,0.00,48.4,WeatherDisplay:10.37,2015-05-29 13:51:00,
2015-05-29 06:56:00,55.0,53.6,29.95,NE,41,0.0,0.0,95,0.00,OVC,,0.00,50.6,WeatherDisplay:10.37,2015-05-29 13:56:00,
2015-05-29 07:01:00,55.0,53.6,29.96,NE,41,0.0,0.0,95,0.00,OVC,,0.00,50.6,WeatherDisplay:10.37,2015-05-29 14:01:00,
2015-05-29 07:06:00,55.1,53.7,29.97,NE,41,0.0,0.0,95,0.00,OVC,,0.00,56.1,WeatherDisplay:10.37,2015-05-29 14:06:00,
2015-05-29 07:11:00,55.1,53.7,29.97,NE,41,0.0,0.0,95,0.00,OVC,,0.00,73.7,WeatherDisplay:10.37,2015-05-29 14:11:00,
2015-05-29 07:16:00,55.3,53.9,29.97,NE,41,0.0,0.0,95,0.00,OVC,,0.00,77.0,WeatherDisplay:10.37,2015-05-29 14:16:00,